sensor_id;sensor_type;location;lat;lon;timestamp;pressure;altitude;pressure_sealevel;temperature;humidity
8573;BME280;4324;42.012;24.872;2022-07-17T00:00:47;98989.94;;;25.90;47.14
8573;BME280;4324;42.012;24.872;2022-07-17T00:03:15;98926.03;;;25.47;47.26
8573;BME280;4324;42.012;24.872;2022-07-17T00:05:44;98997.00;;;25.86;47.47
8573;BME280;4324;42.012;24.872;2022-07-17T00:08:11;98978.47;;;25.73;47.51
8573;BME280;4324;42.012;24.872;2022-07-17T00:10:44;98996.41;;;25.79;47.67
8573;BME280;4324;42.012;24.872;2022-07-17T00:13:11;99007.28;;;25.79;47.82
8573;BME280;4324;42.012;24.872;2022-07-17T00:15:38;99009.66;;;25.75;47.74
8573;BME280;4324;42.012;24.872;2022-07-17T00:18:05;99011.28;;;25.71;48.07
8573;BME280;4324;42.012;24.872;2022-07-17T00:20:34;98993.63;;;25.64;48.29
8573;BME280;4324;42.012;24.872;2022-07-17T00:23:02;99006.66;;;25.67;48.07
8573;BME280;4324;42.012;24.872;2022-07-17T00:25:29;99006.09;;;25.65;48.31
8573;BME280;4324;42.012;24.872;2022-07-17T00:27:58;98997.09;;;25.54;48.16
8573;BME280;4324;42.012;24.872;2022-07-17T00:30:25;99012.31;;;25.60;48.49
8573;BME280;4324;42.012;24.872;2022-07-17T00:32:52;99006.88;;;25.55;48.42
8573;BME280;4324;42.012;24.872;2022-07-17T00:35:19;99020.69;;;25.53;48.73
8573;BME280;4324;42.012;24.872;2022-07-17T00:37:47;99006.31;;;25.53;48.85
8573;BME280;4324;42.012;24.872;2022-07-17T00:40:19;99003.81;;;25.46;48.50
8573;BME280;4324;42.012;24.872;2022-07-17T00:42:46;98993.50;;;25.38;48.63
8573;BME280;4324;42.012;24.872;2022-07-17T00:45:14;99011.44;;;25.44;48.90
8573;BME280;4324;42.012;24.872;2022-07-17T00:47:50;99011.97;;;25.46;49.14
8573;BME280;4324;42.012;24.872;2022-07-17T00:50:20;99013.56;;;25.42;48.89
8573;BME280;4324;42.012;24.872;2022-07-17T00:52:47;99014.66;;;25.41;48.90
8573;BME280;4324;42.012;24.872;2022-07-17T00:55:16;99023.59;;;25.42;48.77
8573;BME280;4324;42.012;24.872;2022-07-17T00:57:46;99022.19;;;25.34;49.21
8573;BME280;4324;42.012;24.872;2022-07-17T01:00:14;99030.34;;;25.39;49.22
8573;BME280;4324;42.012;24.872;2022-07-17T01:02:45;99039.84;;;25.37;49.07
8573;BME280;4324;42.012;24.872;2022-07-17T01:05:12;99038.19;;;25.35;49.35
8573;BME280;4324;42.012;24.872;2022-07-17T01:07:39;99024.91;;;25.29;49.46
8573;BME280;4324;42.012;24.872;2022-07-17T01:10:08;99024.91;;;25.29;49.30
8573;BME280;4324;42.012;24.872;2022-07-17T01:12:36;99028.38;;;25.24;49.56
8573;BME280;4324;42.012;24.872;2022-07-17T01:15:05;99025.66;;;25.24;49.62
8573;BME280;4324;42.012;24.872;2022-07-17T01:17:32;99010.19;;;25.20;49.64
8573;BME280;4324;42.012;24.872;2022-07-17T01:20:00;98989.25;;;25.10;49.39
8573;BME280;4324;42.012;24.872;2022-07-17T01:22:29;99003.84;;;25.09;49.28
8573;BME280;4324;42.012;24.872;2022-07-17T01:24:56;99016.34;;;25.10;49.60
8573;BME280;4324;42.012;24.872;2022-07-17T01:27:23;99030.72;;;25.10;49.56
8573;BME280;4324;42.012;24.872;2022-07-17T01:29:50;99041.78;;;25.09;49.78
8573;BME280;4324;42.012;24.872;2022-07-17T01:32:17;99037.16;;;25.04;49.88
8573;BME280;4324;42.012;24.872;2022-07-17T01:34:44;99046.38;;;25.03;50.03
8573;BME280;4324;42.012;24.872;2022-07-17T01:37:12;99046.28;;;24.93;49.86
8573;BME280;4324;42.012;24.872;2022-07-17T01:39:40;99048.41;;;24.91;50.20
8573;BME280;4324;42.012;24.872;2022-07-17T01:42:20;99056.84;;;24.95;50.04
8573;BME280;4324;42.012;24.872;2022-07-17T01:44:47;99057.66;;;24.95;50.24
8573;BME280;4324;42.012;24.872;2022-07-17T01:47:14;99050.56;;;24.89;50.53
8573;BME280;4324;42.012;24.872;2022-07-17T01:49:43;99070.34;;;24.90;50.25
8573;BME280;4324;42.012;24.872;2022-07-17T01:52:11;99057.78;;;24.78;50.41
8573;BME280;4324;42.012;24.872;2022-07-17T01:54:38;99065.72;;;24.85;50.36
8573;BME280;4324;42.012;24.872;2022-07-17T01:57:06;99061.63;;;24.82;50.34
8573;BME280;4324;42.012;24.872;2022-07-17T01:59:33;99049.38;;;24.75;50.72
8573;BME280;4324;42.012;24.872;2022-07-17T02:02:00;99055.31;;;24.77;50.41
8573;BME280;4324;42.012;24.872;2022-07-17T02:04:27;99068.94;;;24.82;50.92
8573;BME280;4324;42.012;24.872;2022-07-17T02:06:54;99058.50;;;24.69;50.62
8573;BME280;4324;42.012;24.872;2022-07-17T02:09:22;99071.28;;;24.73;51.00
8573;BME280;4324;42.012;24.872;2022-07-17T02:11:49;99046.47;;;24.54;51.05
8573;BME280;4324;42.012;24.872;2022-07-17T02:14:18;99069.91;;;24.71;50.79
8573;BME280;4324;42.012;24.872;2022-07-17T02:16:45;99070.41;;;24.68;51.02
8573;BME280;4324;42.012;24.872;2022-07-17T02:19:12;99068.72;;;24.61;50.97
8573;BME280;4324;42.012;24.872;2022-07-17T02:21:38;99066.28;;;24.60;51.29
8573;BME280;4324;42.012;24.872;2022-07-17T02:24:06;99042.75;;;24.38;51.17
8573;BME280;4324;42.012;24.872;2022-07-17T02:26:33;99060.97;;;24.43;51.54
8573;BME280;4324;42.012;24.872;2022-07-17T02:29:00;99065.56;;;24.43;51.31
8573;BME280;4324;42.012;24.872;2022-07-17T02:31:28;99053.94;;;24.42;51.44
8573;BME280;4324;42.012;24.872;2022-07-17T02:33:55;99059.84;;;24.39;51.49
8573;BME280;4324;42.012;24.872;2022-07-17T02:36:22;99063.16;;;24.46;51.53
8573;BME280;4324;42.012;24.872;2022-07-17T02:38:49;99060.16;;;24.43;51.53
8573;BME280;4324;42.012;24.872;2022-07-17T02:41:16;99073.75;;;24.48;51.58
8573;BME280;4324;42.012;24.872;2022-07-17T02:43:44;99057.72;;;24.41;51.53
8573;BME280;4324;42.012;24.872;2022-07-17T02:46:11;99075.06;;;24.45;51.89
8573;BME280;4324;42.012;24.872;2022-07-17T02:48:40;99084.59;;;24.48;51.68
8573;BME280;4324;42.012;24.872;2022-07-17T02:51:07;99072.91;;;24.47;51.61
8573;BME280;4324;42.012;24.872;2022-07-17T02:53:34;99076.97;;;24.45;51.94
8573;BME280;4324;42.012;24.872;2022-07-17T02:56:01;99078.84;;;24.44;51.94
8573;BME280;4324;42.012;24.872;2022-07-17T02:58:28;99077.19;;;24.43;51.81
8573;BME280;4324;42.012;24.872;2022-07-17T03:00:55;99065.72;;;24.36;51.92
8573;BME280;4324;42.012;24.872;2022-07-17T03:03:22;99074.09;;;24.34;51.90
8573;BME280;4324;42.012;24.872;2022-07-17T03:05:50;99074.88;;;24.30;52.19
8573;BME280;4324;42.012;24.872;2022-07-17T03:08:17;99081.09;;;24.30;52.39
8573;BME280;4324;42.012;24.872;2022-07-17T03:10:47;99071.06;;;24.26;52.49
8573;BME280;4324;42.012;24.872;2022-07-17T03:13:14;99069.41;;;24.25;52.68
8573;BME280;4324;42.012;24.872;2022-07-17T03:15:42;99057.34;;;24.10;52.29
8573;BME280;4324;42.012;24.872;2022-07-17T03:18:09;99086.16;;;24.22;52.33
8573;BME280;4324;42.012;24.872;2022-07-17T03:20:36;99089.69;;;24.22;52.55
8573;BME280;4324;42.012;24.872;2022-07-17T03:23:04;99094.81;;;24.24;52.73
8573;BME280;4324;42.012;24.872;2022-07-17T03:25:31;99092.69;;;24.26;52.45
8573;BME280;4324;42.012;24.872;2022-07-17T03:27:58;99084.00;;;24.24;52.26
8573;BME280;4324;42.012;24.872;2022-07-17T03:30:25;99089.41;;;24.24;52.61
8573;BME280;4324;42.012;24.872;2022-07-17T03:32:53;99096.44;;;24.25;52.56
8573;BME280;4324;42.012;24.872;2022-07-17T03:35:20;99088.41;;;24.30;52.65
8573;BME280;4324;42.012;24.872;2022-07-17T03:37:46;99085.94;;;24.28;52.46
8573;BME280;4324;42.012;24.872;2022-07-17T03:40:15;99098.47;;;24.34;52.47
8573;BME280;4324;42.012;24.872;2022-07-17T03:42:42;99104.69;;;24.35;52.30
8573;BME280;4324;42.012;24.872;2022-07-17T03:45:09;99073.13;;;24.19;52.36
8573;BME280;4324;42.012;24.872;2022-07-17T03:47:36;99073.75;;;24.26;52.63
8573;BME280;4324;42.012;24.872;2022-07-17T03:50:04;99104.81;;;24.40;52.71
8573;BME280;4324;42.012;24.872;2022-07-17T03:52:31;99101.06;;;24.46;52.59
8573;BME280;4324;42.012;24.872;2022-07-17T03:54:58;99107.88;;;24.49;52.46
8573;BME280;4324;42.012;24.872;2022-07-17T03:57:26;99096.72;;;24.45;52.41
8573;BME280;4324;42.012;24.872;2022-07-17T03:59:53;99105.47;;;24.52;52.31
8573;BME280;4324;42.012;24.872;2022-07-17T04:02:20;99118.00;;;24.58;52.47
8573;BME280;4324;42.012;24.872;2022-07-17T04:04:47;99104.97;;;24.55;52.50
8573;BME280;4324;42.012;24.872;2022-07-17T04:07:14;99103.88;;;24.56;52.46
8573;BME280;4324;42.012;24.872;2022-07-17T04:09:54;99118.59;;;24.66;52.42
8573;BME280;4324;42.012;24.872;2022-07-17T04:12:22;99113.16;;;24.66;52.55
8573;BME280;4324;42.012;24.872;2022-07-17T04:14:51;99122.72;;;24.73;52.20
8573;BME280;4324;42.012;24.872;2022-07-17T04:17:17;99116.56;;;24.78;52.33
8573;BME280;4324;42.012;24.872;2022-07-17T04:19:45;99111.44;;;24.81;52.24
8573;BME280;4324;42.012;24.872;2022-07-17T04:22:12;99129.16;;;24.94;51.97
8573;BME280;4324;42.012;24.872;2022-07-17T04:24:38;99120.53;;;24.97;52.04
8573;BME280;4324;42.012;24.872;2022-07-17T04:27:06;99134.09;;;25.02;52.33
8573;BME280;4324;42.012;24.872;2022-07-17T04:29:33;99131.47;;;25.07;51.86
8573;BME280;4324;42.012;24.872;2022-07-17T04:32:01;99125.56;;;25.10;52.01
8573;BME280;4324;42.012;24.872;2022-07-17T04:34:29;99130.22;;;25.20;51.71
8573;BME280;4324;42.012;24.872;2022-07-17T04:36:56;99138.16;;;25.27;51.75
8573;BME280;4324;42.012;24.872;2022-07-17T04:39:22;99139.25;;;25.31;51.43
8573;BME280;4324;42.012;24.872;2022-07-17T04:41:50;99130.03;;;25.32;51.47
8573;BME280;4324;42.012;24.872;2022-07-17T04:44:17;99144.19;;;25.39;51.40
8573;BME280;4324;42.012;24.872;2022-07-17T04:46:44;99145.31;;;25.43;51.47
8573;BME280;4324;42.012;24.872;2022-07-17T04:49:13;99142.66;;;25.48;51.06
8573;BME280;4324;42.012;24.872;2022-07-17T04:51:40;99135.56;;;25.47;51.35
8573;BME280;4324;42.012;24.872;2022-07-17T04:54:07;99143.78;;;25.57;51.03
8573;BME280;4324;42.012;24.872;2022-07-17T04:56:34;99139.47;;;25.62;51.03
8573;BME280;4324;42.012;24.872;2022-07-17T04:59:01;99143.66;;;25.74;51.28
8573;BME280;4324;42.012;24.872;2022-07-17T05:01:29;99144.50;;;25.80;51.18
8573;BME280;4324;42.012;24.872;2022-07-17T05:03:56;99151.34;;;25.88;50.98
8573;BME280;4324;42.012;24.872;2022-07-17T05:06:24;99163.63;;;26.00;50.89
8573;BME280;4324;42.012;24.872;2022-07-17T05:08:52;99159.84;;;26.06;50.64
8573;BME280;4324;42.012;24.872;2022-07-17T05:11:19;99149.56;;;26.09;50.54
8573;BME280;4324;42.012;24.872;2022-07-17T05:13:46;99148.47;;;26.10;50.54
8573;BME280;4324;42.012;24.872;2022-07-17T05:16:13;99163.19;;;26.19;50.67
8573;BME280;4324;42.012;24.872;2022-07-17T05:18:40;99140.38;;;26.15;50.71
8573;BME280;4324;42.012;24.872;2022-07-17T05:21:07;99124.09;;;26.15;50.29
8573;BME280;4324;42.012;24.872;2022-07-17T05:23:36;99153.19;;;26.35;50.34
8573;BME280;4324;42.012;24.872;2022-07-17T05:26:03;99158.91;;;26.43;50.36
8573;BME280;4324;42.012;24.872;2022-07-17T05:28:30;99155.72;;;26.46;50.34
8573;BME280;4324;42.012;24.872;2022-07-17T05:30:57;99155.75;;;26.51;50.16
8573;BME280;4324;42.012;24.872;2022-07-17T05:33:24;99155.19;;;26.54;50.23
8573;BME280;4324;42.012;24.872;2022-07-17T05:35:50;99162.28;;;26.61;50.28
8573;BME280;4324;42.012;24.872;2022-07-17T05:38:17;99175.84;;;26.61;50.19
8573;BME280;4324;42.012;24.872;2022-07-17T05:40:46;99144.28;;;26.44;50.18
8573;BME280;4324;42.012;24.872;2022-07-17T05:43:13;99173.72;;;26.73;49.85
8573;BME280;4324;42.012;24.872;2022-07-17T05:45:40;99166.69;;;26.82;49.75
8573;BME280;4324;42.012;24.872;2022-07-17T05:48:07;99180.28;;;26.97;49.52
8573;BME280;4324;42.012;24.872;2022-07-17T05:50:34;99175.47;;;27.15;48.68
8573;BME280;4324;42.012;24.872;2022-07-17T05:53:01;99186.88;;;27.32;47.33
8573;BME280;4324;42.012;24.872;2022-07-17T05:55:28;99177.63;;;27.54;46.05
8573;BME280;4324;42.012;24.872;2022-07-17T05:57:57;99195.88;;;27.79;45.43
8573;BME280;4324;42.012;24.872;2022-07-17T06:00:24;99178.69;;;27.98;45.52
8573;BME280;4324;42.012;24.872;2022-07-17T06:02:50;99202.59;;;28.17;44.55
8573;BME280;4324;42.012;24.872;2022-07-17T06:05:17;99183.78;;;28.20;43.59
8573;BME280;4324;42.012;24.872;2022-07-17T06:07:45;99160.16;;;28.11;42.64
8573;BME280;4324;42.012;24.872;2022-07-17T06:10:12;99185.16;;;28.23;42.30
8573;BME280;4324;42.012;24.872;2022-07-17T06:12:38;99187.28;;;28.41;43.83
8573;BME280;4324;42.012;24.872;2022-07-17T06:15:07;99176.91;;;28.49;42.92
8573;BME280;4324;42.012;24.872;2022-07-17T06:17:34;99198.13;;;28.57;41.81
8573;BME280;4324;42.012;24.872;2022-07-17T06:20:02;99189.66;;;28.58;41.31
8573;BME280;4324;42.012;24.872;2022-07-17T06:22:29;99184.50;;;28.57;41.50
8573;BME280;4324;42.012;24.872;2022-07-17T06:24:56;99183.38;;;28.63;41.45
8573;BME280;4324;42.012;24.872;2022-07-17T06:27:23;99203.50;;;28.72;41.33
8573;BME280;4324;42.012;24.872;2022-07-17T06:29:50;99199.66;;;28.73;40.62
8573;BME280;4324;42.012;24.872;2022-07-17T06:32:18;99169.44;;;28.69;40.28
8573;BME280;4324;42.012;24.872;2022-07-17T06:34:45;99182.75;;;28.81;39.52
8573;BME280;4324;42.012;24.872;2022-07-17T06:37:12;99189.78;;;28.87;39.43
8573;BME280;4324;42.012;24.872;2022-07-17T06:39:39;99188.66;;;28.93;39.79
8573;BME280;4324;42.012;24.872;2022-07-17T06:42:07;99190.81;;;29.02;39.37
8573;BME280;4324;42.012;24.872;2022-07-17T06:44:35;99189.19;;;28.95;38.93
8573;BME280;4324;42.012;24.872;2022-07-17T06:47:03;99176.94;;;28.93;38.93
8573;BME280;4324;42.012;24.872;2022-07-17T06:49:31;99186.97;;;29.03;38.98
8573;BME280;4324;42.012;24.872;2022-07-17T06:51:58;99214.22;;;29.08;38.85
8573;BME280;4324;42.012;24.872;2022-07-17T06:54:25;99194.84;;;29.09;38.52
8573;BME280;4324;42.012;24.872;2022-07-17T06:56:53;99159.28;;;28.85;38.62
8573;BME280;4324;42.012;24.872;2022-07-17T06:59:20;99189.69;;;29.08;38.47
8573;BME280;4324;42.012;24.872;2022-07-17T07:01:47;99200.25;;;29.20;38.36
8573;BME280;4324;42.012;24.872;2022-07-17T07:04:14;99216.25;;;29.31;38.04
8573;BME280;4324;42.012;24.872;2022-07-17T07:06:43;99202.03;;;29.34;37.91
8573;BME280;4324;42.012;24.872;2022-07-17T07:09:10;99214.31;;;29.32;37.86
8573;BME280;4324;42.012;24.872;2022-07-17T07:11:38;99208.34;;;29.30;37.43
8573;BME280;4324;42.012;24.872;2022-07-17T07:14:05;99210.22;;;29.34;37.49
8573;BME280;4324;42.012;24.872;2022-07-17T07:16:32;99222.75;;;29.35;36.95
8573;BME280;4324;42.012;24.872;2022-07-17T07:18:59;99141.81;;;28.86;36.70
8573;BME280;4324;42.012;24.872;2022-07-17T07:21:26;99206.38;;;29.35;37.12
8573;BME280;4324;42.012;24.872;2022-07-17T07:23:55;99196.84;;;29.33;36.84
8573;BME280;4324;42.012;24.872;2022-07-17T07:26:22;99203.28;;;29.47;36.93
8573;BME280;4324;42.012;24.872;2022-07-17T07:28:50;99213.63;;;29.50;36.24
8573;BME280;4324;42.012;24.872;2022-07-17T07:31:17;99214.44;;;29.51;35.29
8573;BME280;4324;42.012;24.872;2022-07-17T07:33:44;99211.44;;;29.52;35.27
8573;BME280;4324;42.012;24.872;2022-07-17T07:36:11;99210.53;;;29.67;35.68
8573;BME280;4324;42.012;24.872;2022-07-17T07:38:38;99212.09;;;29.73;34.91
8573;BME280;4324;42.012;24.872;2022-07-17T07:41:07;99206.63;;;29.73;34.79
8573;BME280;4324;42.012;24.872;2022-07-17T07:43:33;99215.31;;;29.80;35.33
8573;BME280;4324;42.012;24.872;2022-07-17T07:46:00;99233.59;;;29.80;34.88
8573;BME280;4324;42.012;24.872;2022-07-17T07:48:28;99219.38;;;29.83;34.70
8573;BME280;4324;42.012;24.872;2022-07-17T07:50:55;99224.22;;;29.91;34.77
8573;BME280;4324;42.012;24.872;2022-07-17T07:53:22;99228.81;;;29.96;33.87
8573;BME280;4324;42.012;24.872;2022-07-17T07:55:49;99238.88;;;30.00;33.69
8573;BME280;4324;42.012;24.872;2022-07-17T07:58:17;99235.28;;;30.05;32.76
8573;BME280;4324;42.012;24.872;2022-07-17T08:00:45;99234.34;;;30.14;33.01
8573;BME280;4324;42.012;24.872;2022-07-17T08:03:12;99225.66;;;30.12;32.64
8573;BME280;4324;42.012;24.872;2022-07-17T08:05:39;99234.66;;;30.13;32.56
8573;BME280;4324;42.012;24.872;2022-07-17T08:08:06;99236.00;;;30.16;32.52
8573;BME280;4324;42.012;24.872;2022-07-17T08:10:33;99234.03;;;30.21;32.44
8573;BME280;4324;42.012;24.872;2022-07-17T08:13:00;99240.03;;;30.23;31.89
8573;BME280;4324;42.012;24.872;2022-07-17T08:15:29;99244.84;;;30.31;31.83
8573;BME280;4324;42.012;24.872;2022-07-17T08:17:56;99230.84;;;30.38;31.88
8573;BME280;4324;42.012;24.872;2022-07-17T08:20:23;99244.63;;;30.52;31.62
8573;BME280;4324;42.012;24.872;2022-07-17T08:22:50;99238.88;;;30.53;31.37
8573;BME280;4324;42.012;24.872;2022-07-17T08:25:17;99240.44;;;30.59;31.44
8573;BME280;4324;42.012;24.872;2022-07-17T08:27:44;99232.00;;;30.56;31.77
8573;BME280;4324;42.012;24.872;2022-07-17T08:30:13;99232.06;;;30.75;31.23
8573;BME280;4324;42.012;24.872;2022-07-17T08:32:43;99235.25;;;30.82;31.62
8573;BME280;4324;42.012;24.872;2022-07-17T08:35:10;99239.84;;;30.87;31.39
8573;BME280;4324;42.012;24.872;2022-07-17T08:37:45;99239.75;;;30.92;30.96
8573;BME280;4324;42.012;24.872;2022-07-17T08:40:23;99242.91;;;31.04;30.57
8573;BME280;4324;42.012;24.872;2022-07-17T08:42:51;99227.97;;;31.15;30.75
8573;BME280;4324;42.012;24.872;2022-07-17T08:45:19;99233.66;;;31.19;30.69
8573;BME280;4324;42.012;24.872;2022-07-17T08:47:50;99225.81;;;31.12;30.73
8573;BME280;4324;42.012;24.872;2022-07-17T08:50:21;99223.59;;;31.14;30.68
8573;BME280;4324;42.012;24.872;2022-07-17T08:52:49;99230.84;;;31.24;30.57
8573;BME280;4324;42.012;24.872;2022-07-17T08:55:17;99232.16;;;31.26;30.73
8573;BME280;4324;42.012;24.872;2022-07-17T08:57:44;99226.63;;;31.31;30.35
8573;BME280;4324;42.012;24.872;2022-07-17T09:00:13;99215.00;;;31.21;30.62
8573;BME280;4324;42.012;24.872;2022-07-17T09:02:55;99232.47;;;31.44;30.23
8573;BME280;4324;42.012;24.872;2022-07-17T09:05:23;99228.44;;;31.55;30.54
8573;BME280;4324;42.012;24.872;2022-07-17T09:07:50;99233.03;;;31.60;30.13
8573;BME280;4324;42.012;24.872;2022-07-17T09:10:17;99230.53;;;31.63;29.83
8573;BME280;4324;42.012;24.872;2022-07-17T09:12:44;99234.78;;;31.69;29.65
8573;BME280;4324;42.012;24.872;2022-07-17T09:15:16;99226.66;;;31.64;29.93
8573;BME280;4324;42.012;24.872;2022-07-17T09:17:50;99219.75;;;31.67;29.61
8573;BME280;4324;42.012;24.872;2022-07-17T09:20:19;99213.09;;;31.73;29.43
8573;BME280;4324;42.012;24.872;2022-07-17T09:22:55;99234.47;;;31.90;29.56
8573;BME280;4324;42.012;24.872;2022-07-17T09:25:32;99222.91;;;31.93;29.42
8573;BME280;4324;42.012;24.872;2022-07-17T09:28:00;99207.69;;;31.87;28.92
8573;BME280;4324;42.012;24.872;2022-07-17T09:30:28;99227.75;;;31.96;28.97
8573;BME280;4324;42.012;24.872;2022-07-17T09:32:55;99218.25;;;31.93;28.79
8573;BME280;4324;42.012;24.872;2022-07-17T09:35:24;99209.50;;;31.91;28.86
8573;BME280;4324;42.012;24.872;2022-07-17T09:37:51;99226.56;;;32.02;28.79
8573;BME280;4324;42.012;24.872;2022-07-17T09:40:20;99217.56;;;32.15;28.67
8573;BME280;4324;42.012;24.872;2022-07-17T09:43:01;99219.66;;;32.18;28.16
8573;BME280;4324;42.012;24.872;2022-07-17T09:45:28;99216.94;;;32.18;28.18
8573;BME280;4324;42.012;24.872;2022-07-17T09:47:56;99213.59;;;32.21;28.67
8573;BME280;4324;42.012;24.872;2022-07-17T09:50:26;99216.75;;;32.28;27.88
8573;BME280;4324;42.012;24.872;2022-07-17T09:52:55;99219.19;;;32.44;28.01
8573;BME280;4324;42.012;24.872;2022-07-17T09:55:28;99210.97;;;32.58;27.46
8573;BME280;4324;42.012;24.872;2022-07-17T09:57:56;99215.03;;;32.60;27.44
8573;BME280;4324;42.012;24.872;2022-07-17T10:00:25;99221.81;;;32.63;27.50
8573;BME280;4324;42.012;24.872;2022-07-17T10:02:52;99214.31;;;32.68;26.85
8573;BME280;4324;42.012;24.872;2022-07-17T10:05:19;99194.94;;;32.65;26.63
8573;BME280;4324;42.012;24.872;2022-07-17T10:07:48;99215.34;;;32.59;26.50
8573;BME280;4324;42.012;24.872;2022-07-17T10:10:17;99212.19;;;32.51;26.97
8573;BME280;4324;42.012;24.872;2022-07-17T10:12:47;99210.47;;;32.56;26.92
8573;BME280;4324;42.012;24.872;2022-07-17T10:15:16;99220.53;;;32.60;26.74
8573;BME280;4324;42.012;24.872;2022-07-17T10:17:45;99212.59;;;32.59;26.75
8573;BME280;4324;42.012;24.872;2022-07-17T10:20:23;99203.69;;;32.53;26.75
8573;BME280;4324;42.012;24.872;2022-07-17T10:22:52;99198.06;;;32.58;27.09
8573;BME280;4324;42.012;24.872;2022-07-17T10:25:19;99183.97;;;32.65;26.99
8573;BME280;4324;42.012;24.872;2022-07-17T10:27:47;99183.94;;;32.79;26.88
8573;BME280;4324;42.012;24.872;2022-07-17T10:30:20;99195.06;;;32.96;26.78
8573;BME280;4324;42.012;24.872;2022-07-17T10:32:55;99182.88;;;33.02;26.05
8573;BME280;4324;42.012;24.872;2022-07-17T10:35:25;99185.47;;;33.07;25.69
8573;BME280;4324;42.012;24.872;2022-07-17T10:37:57;99191.63;;;33.04;25.72
8573;BME280;4324;42.012;24.872;2022-07-17T10:40:25;99196.16;;;33.09;26.03
8573;BME280;4324;42.012;24.872;2022-07-17T10:42:57;99178.38;;;33.06;26.14
8573;BME280;4324;42.012;24.872;2022-07-17T10:45:28;99170.47;;;33.05;26.43
8573;BME280;4324;42.012;24.872;2022-07-17T10:48:00;99161.44;;;33.04;26.33
8573;BME280;4324;42.012;24.872;2022-07-17T10:50:29;99171.25;;;33.19;26.14
8573;BME280;4324;42.012;24.872;2022-07-17T10:53:14;99168.78;;;33.17;25.90
8573;BME280;4324;42.012;24.872;2022-07-17T10:55:49;99176.53;;;33.15;26.14
8573;BME280;4324;42.012;24.872;2022-07-17T10:58:22;99173.47;;;33.17;26.21
8573;BME280;4324;42.012;24.872;2022-07-17T11:01:03;99176.72;;;33.19;26.08
8573;BME280;4324;42.012;24.872;2022-07-17T11:03:33;99170.91;;;33.20;25.93
8573;BME280;4324;42.012;24.872;2022-07-17T11:06:13;99158.19;;;33.24;25.97
8573;BME280;4324;42.012;24.872;2022-07-17T11:08:44;99139.78;;;33.25;25.88
8573;BME280;4324;42.012;24.872;2022-07-17T11:11:16;99146.97;;;33.35;26.03
8573;BME280;4324;42.012;24.872;2022-07-17T11:13:44;99143.13;;;33.44;25.98
8573;BME280;4324;42.012;24.872;2022-07-17T11:16:11;99154.22;;;33.53;25.65
8573;BME280;4324;42.012;24.872;2022-07-17T11:18:46;99148.31;;;33.46;25.87
8573;BME280;4324;42.012;24.872;2022-07-17T11:21:14;99154.44;;;33.43;26.08
8573;BME280;4324;42.012;24.872;2022-07-17T11:23:52;99133.09;;;33.40;25.56
8573;BME280;4324;42.012;24.872;2022-07-17T11:26:19;99143.28;;;33.39;25.47
8573;BME280;4324;42.012;24.872;2022-07-17T11:28:47;99147.34;;;33.42;25.43
8573;BME280;4324;42.012;24.872;2022-07-17T11:31:18;99139.56;;;33.44;25.76
8573;BME280;4324;42.012;24.872;2022-07-17T11:33:50;99146.81;;;33.62;25.64
8573;BME280;4324;42.012;24.872;2022-07-17T11:36:23;99132.44;;;33.57;25.58
8573;BME280;4324;42.012;24.872;2022-07-17T11:38:52;99138.47;;;33.67;25.49
8573;BME280;4324;42.012;24.872;2022-07-17T11:41:19;99134.59;;;33.68;25.48
8573;BME280;4324;42.012;24.872;2022-07-17T11:43:47;99146.38;;;33.69;25.33
8573;BME280;4324;42.012;24.872;2022-07-17T11:46:14;99147.50;;;33.68;25.40
8573;BME280;4324;42.012;24.872;2022-07-17T11:48:42;99126.47;;;33.63;24.78
8573;BME280;4324;42.012;24.872;2022-07-17T11:51:10;99116.94;;;33.61;24.67
8573;BME280;4324;42.012;24.872;2022-07-17T11:53:38;99128.28;;;33.68;24.91
8573;BME280;4324;42.012;24.872;2022-07-17T11:56:07;99123.78;;;33.72;24.80
8573;BME280;4324;42.012;24.872;2022-07-17T11:58:43;99135.47;;;33.86;25.07
8573;BME280;4324;42.012;24.872;2022-07-17T12:01:10;99110.94;;;33.90;24.80
8573;BME280;4324;42.012;24.872;2022-07-17T12:03:37;99114.72;;;34.03;24.74
8573;BME280;4324;42.012;24.872;2022-07-17T12:06:04;99114.72;;;34.11;24.98
8573;BME280;4324;42.012;24.872;2022-07-17T12:08:32;99113.00;;;34.24;24.73
8573;BME280;4324;42.012;24.872;2022-07-17T12:11:04;99115.41;;;34.26;24.83
8573;BME280;4324;42.012;24.872;2022-07-17T12:13:44;99115.09;;;34.27;24.95
8573;BME280;4324;42.012;24.872;2022-07-17T12:16:20;99113.81;;;34.33;24.50
8573;BME280;4324;42.012;24.872;2022-07-17T12:18:59;99101.19;;;34.24;24.54
8573;BME280;4324;42.012;24.872;2022-07-17T12:21:31;99105.03;;;34.23;24.64
8573;BME280;4324;42.012;24.872;2022-07-17T12:24:04;99079.78;;;34.03;24.43
8573;BME280;4324;42.012;24.872;2022-07-17T12:26:32;99097.28;;;34.16;24.47
8573;BME280;4324;42.012;24.872;2022-07-17T12:29:00;99104.41;;;34.26;24.24
8573;BME280;4324;42.012;24.872;2022-07-17T12:31:27;99103.94;;;34.32;24.22
8573;BME280;4324;42.012;24.872;2022-07-17T12:33:55;99093.75;;;34.33;24.30
8573;BME280;4324;42.012;24.872;2022-07-17T12:36:23;99109.94;;;34.43;23.56
8573;BME280;4324;42.012;24.872;2022-07-17T12:38:50;99105.09;;;34.40;23.63
8573;BME280;4324;42.012;24.872;2022-07-17T12:41:17;99113.19;;;34.45;23.53
8573;BME280;4324;42.012;24.872;2022-07-17T12:43:47;99114.94;;;34.32;23.18
8573;BME280;4324;42.012;24.872;2022-07-17T12:46:15;99105.72;;;34.19;23.44
8573;BME280;4324;42.012;24.872;2022-07-17T12:48:43;99095.00;;;34.09;23.49
8573;BME280;4324;42.012;24.872;2022-07-17T12:51:12;99095.81;;;34.18;23.49
8573;BME280;4324;42.012;24.872;2022-07-17T12:53:40;99076.75;;;34.05;23.19
8573;BME280;4324;42.012;24.872;2022-07-17T12:56:08;99100.50;;;34.09;23.39
8573;BME280;4324;42.012;24.872;2022-07-17T12:58:36;99099.53;;;34.05;23.28
8573;BME280;4324;42.012;24.872;2022-07-17T13:01:04;99094.50;;;33.99;23.65
8573;BME280;4324;42.012;24.872;2022-07-17T13:03:33;99062.56;;;33.71;23.81
8573;BME280;4324;42.012;24.872;2022-07-17T13:06:03;99105.91;;;33.92;23.88
8573;BME280;4324;42.012;24.872;2022-07-17T13:08:30;99088.22;;;34.07;23.76
8573;BME280;4324;42.012;24.872;2022-07-17T13:10:58;99086.44;;;34.11;23.51
8573;BME280;4324;42.012;24.872;2022-07-17T13:13:25;99079.66;;;34.17;23.61
8573;BME280;4324;42.012;24.872;2022-07-17T13:15:52;99094.84;;;34.14;23.48